Time,TemperatureF,DewpointF,PressureIn,WindDirection,WindDirectionDegrees,WindSpeedMPH,WindSpeedGustMPH,Humidity,HourlyPrecipIn,Conditions,Clouds,dailyrainin,SoftwareType,DateUTC
2013-08-27 00:00:00,78.3,73.0,30.03,ENE,68,0.2,0.2,84,0.00,RA,,0.00,WeatherDisplay:10.37,2013-08-27 04:00:00,
2013-08-27 00:01:00,78.3,73.0,30.03,ENE,68,0.0,0.2,84,0.00,RA,,0.00,WeatherDisplay:10.37,2013-08-27 04:01:00,
2013-08-27 00:06:00,77.9,72.7,30.03,ENE,68,1.1,1.1,84,0.00,RA,,0.00,WeatherDisplay:10.37,2013-08-27 04:06:00,
2013-08-27 00:11:00,77.7,72.8,30.03,NE,45,2.4,2.4,85,0.00,SCT,,0.00,WeatherDisplay:10.37,2013-08-27 04:11:00,
2013-08-27 00:16:00,77.7,72.8,30.03,ENE,68,1.6,1.6,85,0.00,SCT,,0.00,WeatherDisplay:10.37,2013-08-27 04:16:00,
2013-08-27 00:21:00,77.7,72.8,30.03,East,90,1.1,1.1,85,0.00,SCT,,0.00,WeatherDisplay:10.37,2013-08-27 04:21:00,
2013-08-27 00:26:00,77.4,72.5,30.03,ENE,68,1.1,1.1,85,0.00,SCT,,0.00,WeatherDisplay:10.37,2013-08-27 04:26:00,
2013-08-27 00:31:00,77.4,72.5,30.03,NE,45,2.3,2.3,85,0.00,SCT,,0.00,WeatherDisplay:10.37,2013-08-27 04:31:00,
2013-08-27 00:36:00,77.4,72.5,30.03,NE,45,2.6,2.6,85,0.00,SCT,,0.00,WeatherDisplay:10.37,2013-08-27 04:36:00,
2013-08-27 00:41:00,77.4,72.5,30.03,NNE,22,1.1,1.1,85,0.00,SCT,,0.00,WeatherDisplay:10.37,2013-08-27 04:41:00,
2013-08-27 00:46:00,77.4,72.5,30.02,NNE,22,1.1,0.0,85,0.00,SCT,,0.00,WeatherDisplay:10.37,2013-08-27 04:46:00,
2013-08-27 00:51:00,77.2,72.3,30.02,NNE,22,1.1,1.1,85,0.00,SCT,,0.00,WeatherDisplay:10.37,2013-08-27 04:51:00,
2013-08-27 00:56:00,77.0,72.1,30.02,NE,45,2.3,2.3,85,0.00,SCT,,0.00,WeatherDisplay:10.37,2013-08-27 04:56:00,
2013-08-27 01:01:00,77.0,72.1,30.02,NE,45,1.1,1.1,85,0.00,FEW,,0.00,WeatherDisplay:10.37,2013-08-27 05:01:00,
2013-08-27 01:06:00,77.0,72.1,30.02,East,90,2.3,2.3,85,0.00,FEW,,0.00,WeatherDisplay:10.37,2013-08-27 05:06:00,
2013-08-27 01:11:00,76.8,72.0,30.02,East,90,3.3,3.3,85,0.00,FEW,,0.00,WeatherDisplay:10.37,2013-08-27 05:11:00,
2013-08-27 01:16:00,76.8,72.0,30.02,East,90,4.6,4.6,85,0.00,FEW,,0.00,WeatherDisplay:10.37,2013-08-27 05:16:00,
2013-08-27 01:21:00,77.0,72.1,30.02,ENE,68,2.3,2.3,85,0.00,FEW,,0.00,WeatherDisplay:10.37,2013-08-27 05:21:00,
2013-08-27 01:26:00,77.0,72.1,30.01,ESE,112,1.6,1.6,85,0.00,FEW,,0.00,WeatherDisplay:10.37,2013-08-27 05:26:00,
2013-08-27 01:31:00,76.6,71.8,30.01,ESE,112,2.3,2.3,85,0.00,-RA,,0.00,WeatherDisplay:10.37,2013-08-27 05:31:00,
2013-08-27 01:36:00,76.6,71.4,30.01,ESE,112,2.6,2.6,84,0.00,-RA,,0.00,WeatherDisplay:10.37,2013-08-27 05:36:00,
2013-08-27 01:41:00,76.5,71.3,30.00,ENE,68,1.1,1.1,84,0.00,-RA,,0.00,WeatherDisplay:10.37,2013-08-27 05:41:00,
2013-08-27 01:46:00,76.1,70.9,30.00,ENE,68,1.1,1.1,84,0.00,SCT,,0.00,WeatherDisplay:10.37,2013-08-27 05:46:00,
2013-08-27 01:52:00,75.9,70.7,30.00,NE,45,2.3,2.4,84,0.00,SCT,,0.00,WeatherDisplay:10.37,2013-08-27 05:52:00,
2013-08-27 01:57:00,75.9,70.7,30.00,NE,45,4.7,4.7,84,0.00,SCT,,0.00,WeatherDisplay:10.37,2013-08-27 05:57:00,
2013-08-27 02:02:00,75.9,70.7,30.00,NNE,22,3.8,3.8,84,0.00,SCT,,0.00,WeatherDisplay:10.37,2013-08-27 06:02:00,
2013-08-27 02:07:00,75.7,70.6,30.00,NE,45,3.5,3.5,84,0.00,SCT,,0.00,WeatherDisplay:10.37,2013-08-27 06:07:00,
2013-08-27 02:12:00,75.6,70.4,30.00,NE,45,5.8,5.8,84,0.00,SCT,,0.00,WeatherDisplay:10.37,2013-08-27 06:12:00,
2013-08-27 02:17:00,75.6,70.4,30.00,NE,45,0.5,0.5,84,0.00,SCT,,0.00,WeatherDisplay:10.37,2013-08-27 06:17:00,
2013-08-27 02:22:00,75.6,70.7,30.00,NE,45,2.3,2.9,85,0.00,SCT,,0.00,WeatherDisplay:10.37,2013-08-27 06:22:00,
2013-08-27 02:27:00,75.6,70.7,30.00,NNE,22,1.4,1.4,85,0.00,SCT,,0.00,WeatherDisplay:10.37,2013-08-27 06:27:00,
2013-08-27 02:32:00,75.2,70.4,30.00,West,270,1.1,1.1,85,0.00,SCT,,0.00,WeatherDisplay:10.37,2013-08-27 06:32:00,
2013-08-27 02:37:00,75.2,70.7,30.00,NW,315,2.3,2.3,86,0.00,SCT,,0.00,WeatherDisplay:10.37,2013-08-27 06:37:00,
2013-08-27 02:42:00,75.2,70.7,29.99,North,0,1.1,1.1,86,0.00,SCT,,0.00,WeatherDisplay:10.37,2013-08-27 06:42:00,
2013-08-27 02:47:00,75.0,70.5,29.99,NE,45,2.4,2.4,86,0.00,SCT,,0.00,WeatherDisplay:10.37,2013-08-27 06:47:00,
2013-08-27 02:52:00,75.0,70.5,30.00,ESE,112,2.3,2.3,86,0.00,SCT,,0.00,WeatherDisplay:10.37,2013-08-27 06:52:00,
2013-08-27 02:57:00,74.8,70.4,29.99,NE,45,2.4,2.4,86,0.00,SCT,,0.00,WeatherDisplay:10.37,2013-08-27 06:57:00,
2013-08-27 03:02:00,74.8,70.4,29.99,NNE,22,2.3,2.3,86,0.00,SCT,,0.00,WeatherDisplay:10.37,2013-08-27 07:02:00,
2013-08-27 03:07:00,74.8,70.4,29.99,East,90,1.1,1.1,86,0.00,SCT,,0.00,WeatherDisplay:10.37,2013-08-27 07:07:00,
2013-08-27 03:12:00,74.8,70.4,29.99,ENE,68,1.1,1.1,86,0.00,SCT,,0.00,WeatherDisplay:10.37,2013-08-27 07:12:00,
2013-08-27 03:17:00,74.7,70.2,29.99,NE,45,2.3,2.3,86,0.00,SCT,,0.00,WeatherDisplay:10.37,2013-08-27 07:17:00,
2013-08-27 03:22:00,74.5,70.0,29.99,East,90,1.1,1.1,86,0.00,SCT,,0.00,WeatherDisplay:10.37,2013-08-27 07:22:00,
2013-08-27 03:27:00,74.5,70.4,29.99,NNE,22,3.6,3.6,87,0.00,SCT,,0.00,WeatherDisplay:10.37,2013-08-27 07:27:00,
2013-08-27 03:32:00,74.5,70.4,29.99,NNE,22,3.5,3.5,87,0.00,SCT,,0.00,WeatherDisplay:10.37,2013-08-27 07:32:00,
2013-08-27 03:37:00,74.7,70.5,29.99,NNW,338,1.4,1.4,87,0.00,SCT,,0.00,WeatherDisplay:10.37,2013-08-27 07:37:00,
2013-08-27 03:42:00,74.7,70.9,29.98,NNW,338,2.3,2.3,88,0.00,SCT,,0.00,WeatherDisplay:10.37,2013-08-27 07:42:00,
2013-08-27 03:47:00,74.7,70.9,29.98,NNE,22,4.7,4.7,88,0.00,SCT,,0.00,WeatherDisplay:10.37,2013-08-27 07:47:00,
2013-08-27 03:52:00,74.7,70.9,29.98,North,0,2.4,2.4,88,0.00,SCT,,0.00,WeatherDisplay:10.37,2013-08-27 07:52:00,
2013-08-27 03:57:00,74.7,70.9,29.98,NNW,338,2.3,2.3,88,0.00,SCT,,0.00,WeatherDisplay:10.37,2013-08-27 07:57:00,
2013-08-27 04:02:00,74.7,70.9,29.98,NE,45,1.1,1.1,88,0.00,FEW,,0.00,WeatherDisplay:10.37,2013-08-27 08:02:00,
2013-08-27 04:07:00,74.5,70.7,29.98,East,90,1.1,1.1,88,0.00,FEW,,0.00,WeatherDisplay:10.37,2013-08-27 08:07:00,
2013-08-27 04:12:00,74.5,70.7,29.98,NE,45,0.0,0.0,88,0.00,FEW,,0.00,WeatherDisplay:10.37,2013-08-27 08:12:00,
2013-08-27 04:17:00,74.5,71.0,29.98,North,0,2.3,2.3,89,0.00,FEW,,0.00,WeatherDisplay:10.37,2013-08-27 08:17:00,
2013-08-27 04:22:00,74.5,71.0,29.98,NE,45,2.3,2.3,89,0.00,FEW,,0.00,WeatherDisplay:10.37,2013-08-27 08:22:00,
2013-08-27 04:27:00,74.7,71.2,29.98,North,0,0.2,0.2,89,0.00,FEW,,0.00,WeatherDisplay:10.37,2013-08-27 08:27:00,
2013-08-27 04:32:00,74.7,71.2,29.98,North,0,3.1,3.1,89,0.00,FEW,,0.00,WeatherDisplay:10.37,2013-08-27 08:32:00,
2013-08-27 04:37:00,74.8,71.4,29.98,NNE,22,3.5,3.5,89,0.00,FEW,,0.00,WeatherDisplay:10.37,2013-08-27 08:37:00,
2013-08-27 04:42:00,74.8,71.4,29.98,NNE,22,2.6,2.6,89,0.00,FEW,,0.00,WeatherDisplay:10.37,2013-08-27 08:42:00,
2013-08-27 04:47:00,74.8,71.4,29.98,NNE,22,1.4,1.4,89,0.00,FEW,,0.00,WeatherDisplay:10.37,2013-08-27 08:47:00,
2013-08-27 04:52:00,74.8,71.4,29.98,North,0,3.5,3.5,89,0.00,FEW,,0.00,WeatherDisplay:10.37,2013-08-27 08:52:00,
2013-08-27 04:57:00,74.8,71.4,29.98,North,0,2.9,2.9,89,0.00,FEW,,0.00,WeatherDisplay:10.37,2013-08-27 08:57:00,
2013-08-27 05:02:00,74.8,71.4,29.98,NE,45,2.4,2.4,89,0.00,SCT,,0.00,WeatherDisplay:10.37,2013-08-27 09:02:00,
2013-08-27 05:07:00,74.8,71.4,29.98,NNE,22,2.3,2.3,89,0.00,SCT,,0.00,WeatherDisplay:10.37,2013-08-27 09:07:00,
2013-08-27 05:12:00,75.0,71.6,29.98,North,0,4.6,4.6,89,0.00,SCT,,0.00,WeatherDisplay:10.37,2013-08-27 09:12:00,
2013-08-27 05:17:00,75.0,71.6,29.98,NE,45,2.3,2.3,89,0.00,SCT,,0.00,WeatherDisplay:10.37,2013-08-27 09:17:00,
2013-08-27 05:22:00,74.8,71.4,29.98,NNE,22,2.9,2.9,89,0.00,SCT,,0.00,WeatherDisplay:10.37,2013-08-27 09:22:00,
2013-08-27 05:27:00,74.8,71.4,29.98,NNE,22,2.4,2.4,89,0.00,SCT,,0.00,WeatherDisplay:10.37,2013-08-27 09:27:00,
2013-08-27 05:32:00,74.8,71.4,29.98,NNE,22,2.3,2.4,89,0.00,SCT,,0.00,WeatherDisplay:10.37,2013-08-27 09:32:00,
2013-08-27 05:37:00,74.8,71.4,29.98,NNE,22,3.5,3.5,89,0.00,SCT,,0.00,WeatherDisplay:10.37,2013-08-27 09:37:00,
2013-08-27 05:42:00,74.8,71.4,29.98,NNE,22,4.6,4.6,89,0.00,SCT,,0.00,WeatherDisplay:10.37,2013-08-27 09:42:00,
2013-08-27 05:47:00,74.8,71.0,29.99,North,0,4.6,4.6,88,0.00,SCT,,0.00,WeatherDisplay:10.37,2013-08-27 09:47:00,
2013-08-27 05:52:00,74.8,71.0,29.98,NNE,22,3.8,3.8,88,0.00,SCT,,0.00,WeatherDisplay:10.37,2013-08-27 09:52:00,
2013-08-27 05:57:00,74.8,71.0,29.99,ENE,68,2.3,2.3,88,0.00,SCT,,0.00,WeatherDisplay:10.37,2013-08-27 09:57:00,
2013-08-27 06:02:00,74.7,70.9,29.99,NNE,22,1.1,1.4,88,0.00,BKN,,0.00,WeatherDisplay:10.37,2013-08-27 10:02:00,
2013-08-27 06:07:00,74.7,70.9,29.99,East,90,2.6,2.6,88,0.00,BKN,,0.00,WeatherDisplay:10.37,2013-08-27 10:07:00,
2013-08-27 06:12:00,74.5,70.7,29.99,ENE,68,0.5,0.5,88,0.00,BKN,,0.00,WeatherDisplay:10.37,2013-08-27 10:12:00,
2013-08-27 06:17:00,74.5,70.7,29.99,ENE,68,0.0,0.0,88,0.00,BKN,,0.00,WeatherDisplay:10.37,2013-08-27 10:17:00,
2013-08-27 06:22:00,74.1,70.7,29.99,NE,45,2.3,2.3,89,0.00,BKN,,0.00,WeatherDisplay:10.37,2013-08-27 10:22:00,
2013-08-27 06:27:00,74.3,70.8,29.99,NNE,22,2.3,2.3,89,0.00,BKN,,0.00,WeatherDisplay:10.37,2013-08-27 10:27:00,
2013-08-27 06:32:00,74.3,70.8,29.99,NNE,22,0.5,0.5,89,0.00,BKN,,0.00,WeatherDisplay:10.37,2013-08-27 10:32:00,
2013-08-27 06:37:00,74.3,70.8,29.99,NE,45,0.5,0.5,89,0.00,BKN,,0.00,WeatherDisplay:10.37,2013-08-27 10:37:00,
2013-08-27 06:42:00,74.1,70.7,30.00,NE,45,0.2,0.2,89,0.00,BKN,,0.00,WeatherDisplay:10.37,2013-08-27 10:42:00,
2013-08-27 06:47:00,74.1,70.7,30.00,North,0,1.1,1.1,89,0.00,BKN,,0.00,WeatherDisplay:10.37,2013-08-27 10:47:00,
2013-08-27 06:52:00,74.1,70.7,30.00,North,0,0.0,0.0,89,0.00,BKN,,0.00,WeatherDisplay:10.37,2013-08-27 10:52:00,
2013-08-27 06:57:00,74.1,70.7,30.00,North,0,2.4,2.4,89,0.00,BKN,,0.00,WeatherDisplay:10.37,2013-08-27 10:57:00,
2013-08-27 07:02:00,74.1,70.7,30.00,NE,45,2.4,2.4,89,0.00,SCT,,0.00,WeatherDisplay:10.37,2013-08-27 11:02:00,
2013-08-27 07:07:00,74.3,70.8,30.00,NE,45,0.5,0.5,89,0.00,SCT,,0.00,WeatherDisplay:10.37,2013-08-27 11:07:00,
2013-08-27 07:12:00,74.3,70.8,30.00,NE,45,1.1,1.4,89,0.00,SCT,,0.00,WeatherDisplay:10.37,2013-08-27 11:12:00,
2013-08-27 07:17:00,74.5,71.0,30.00,ENE,68,1.4,1.4,89,0.00,SCT,,0.00,WeatherDisplay:10.37,2013-08-27 11:17:00,
2013-08-27 07:22:00,74.5,71.0,30.00,NNW,338,0.2,0.2,89,0.00,SCT,,0.00,WeatherDisplay:10.37,2013-08-27 11:22:00,
2013-08-27 07:27:00,74.8,71.4,30.00,ENE,68,1.1,1.1,89,0.00,SCT,,0.00,WeatherDisplay:10.37,2013-08-27 11:27:00,
2013-08-27 07:32:00,75.4,71.6,30.00,North,0,2.3,2.3,88,0.00,SCT,,0.00,WeatherDisplay:10.37,2013-08-27 11:32:00,
2013-08-27 07:37:00,75.4,71.2,30.00,NNE,22,4.6,4.6,87,0.00,SCT,,0.00,WeatherDisplay:10.37,2013-08-27 11:37:00,
2013-08-27 07:42:00,75.6,71.4,30.00,North,0,4.9,4.9,87,0.00,SCT,,0.00,WeatherDisplay:10.37,2013-08-27 11:42:00,
2013-08-27 07:47:00,75.9,71.8,30.00,North,0,4.6,4.7,87,0.00,SCT,,0.00,WeatherDisplay:10.37,2013-08-27 11:47:00,
2013-08-27 07:52:00,76.3,71.8,30.00,North,0,5.8,6.2,86,0.00,SCT,,0.00,WeatherDisplay:10.37,2013-08-27 11:52:00,
2013-08-27 07:57:00,76.6,72.1,30.00,NNE,22,2.3,2.3,86,0.00,SCT,,0.00,WeatherDisplay:10.37,2013-08-27 11:57:00,
2013-08-27 08:03:00,77.0,71.8,30.00,NNE,22,6.9,6.9,84,0.00,SCT,,0.00,WeatherDisplay:10.37,2013-08-27 12:03:00,
2013-08-27 08:08:00,77.2,72.0,30.00,North,0,5.9,5.9,84,0.00,SCT,,0.00,WeatherDisplay:10.37,2013-08-27 12:08:00,
2013-08-27 08:13:00,77.7,72.1,30.00,NNE,22,2.3,2.3,83,0.00,SCT,,0.00,WeatherDisplay:10.37,2013-08-27 12:13:00,
2013-08-27 08:18:00,78.1,72.5,30.00,NE,45,2.3,2.4,83,0.00,SCT,,0.00,WeatherDisplay:10.37,2013-08-27 12:18:00,
2013-08-27 08:23:00,79.2,73.5,30.00,NE,45,2.3,2.3,83,0.00,SCT,,0.00,WeatherDisplay:10.37,2013-08-27 12:23:00,
2013-08-27 08:28:00,79.9,73.5,30.00,East,90,4.6,4.6,81,0.00,SCT,,0.00,WeatherDisplay:10.37,2013-08-27 12:28:00,
2013-08-27 08:33:00,79.9,73.2,30.00,NNE,22,2.3,2.3,80,0.00,SCT,,0.00,WeatherDisplay:10.37,2013-08-27 12:33:00,
2013-08-27 08:38:00,80.2,73.1,30.00,North,0,3.5,3.5,79,0.00,SCT,,0.00,WeatherDisplay:10.37,2013-08-27 12:38:00,
2013-08-27 08:43:00,80.6,73.1,30.00,NNE,22,2.9,2.9,78,0.00,SCT,,0.00,WeatherDisplay:10.37,2013-08-27 12:43:00,
2013-08-27 08:48:00,80.4,72.2,30.00,NE,45,5.8,5.8,76,0.00,SCT,,0.00,WeatherDisplay:10.37,2013-08-27 12:48:00,
2013-08-27 08:53:00,80.6,72.7,30.00,ENE,68,2.9,2.9,77,0.00,SCT,,0.00,WeatherDisplay:10.37,2013-08-27 12:53:00,
2013-08-27 08:58:00,80.8,72.5,30.00,NNE,22,2.3,2.6,76,0.00,SCT,,0.00,WeatherDisplay:10.37,2013-08-27 12:58:00,
2013-08-27 09:03:00,82.2,73.9,30.01,NNE,22,2.6,2.6,76,0.00,FEW,,0.00,WeatherDisplay:10.37,2013-08-27 13:03:00,
2013-08-27 09:08:00,82.4,73.7,30.01,NNE,22,4.6,4.6,75,0.00,FEW,,0.00,WeatherDisplay:10.37,2013-08-27 13:08:00,
2013-08-27 09:13:00,82.4,73.3,30.01,NE,45,2.4,2.4,74,0.00,FEW,,0.00,WeatherDisplay:10.37,2013-08-27 13:13:00,
2013-08-27 09:18:00,82.9,73.4,30.01,NE,45,5.9,5.9,73,0.00,FEW,,0.00,WeatherDisplay:10.37,2013-08-27 13:18:00,
2013-08-27 09:23:00,82.9,73.0,30.01,NNE,22,4.6,4.6,72,0.00,FEW,,0.00,WeatherDisplay:10.37,2013-08-27 13:23:00,
2013-08-27 09:28:00,83.1,73.6,30.01,NE,45,4.6,4.6,73,0.00,FEW,,0.00,WeatherDisplay:10.37,2013-08-27 13:28:00,
2013-08-27 09:33:00,84.2,74.2,30.02,East,90,2.3,2.3,72,0.00,FEW,,0.00,WeatherDisplay:10.37,2013-08-27 13:33:00,
2013-08-27 09:38:00,84.9,74.0,30.02,NNE,22,6.9,6.9,70,0.00,FEW,,0.00,WeatherDisplay:10.37,2013-08-27 13:38:00,
2013-08-27 09:43:00,84.2,73.3,30.02,ESE,112,3.8,3.8,70,0.00,FEW,,0.00,WeatherDisplay:10.37,2013-08-27 13:43:00,
2013-08-27 09:48:00,83.8,73.4,30.02,East,90,5.2,5.2,71,0.00,FEW,,0.00,WeatherDisplay:10.37,2013-08-27 13:48:00,
2013-08-27 09:53:00,84.2,73.8,30.02,ESE,112,2.6,2.6,71,0.00,FEW,,0.00,WeatherDisplay:10.37,2013-08-27 13:53:00,
2013-08-27 09:58:00,84.2,72.9,30.02,NE,45,5.8,5.8,69,0.00,FEW,,0.00,WeatherDisplay:10.37,2013-08-27 13:58:00,
2013-08-27 10:03:00,83.5,72.2,30.02,NE,45,8.7,8.7,69,0.00,SCT,,0.00,WeatherDisplay:10.37,2013-08-27 14:03:00,
2013-08-27 10:08:00,83.8,72.6,30.02,NE,45,9.2,9.2,69,0.00,SCT,,0.00,WeatherDisplay:10.37,2013-08-27 14:08:00,
2013-08-27 10:13:00,84.4,73.1,30.02,NE,45,6.9,6.9,69,0.00,SCT,,0.00,WeatherDisplay:10.37,2013-08-27 14:13:00,
2013-08-27 10:18:00,84.6,72.4,30.02,East,90,6.9,6.9,67,0.00,SCT,,0.00,WeatherDisplay:10.37,2013-08-27 14:18:00,
2013-08-27 10:23:00,85.1,72.5,30.02,ENE,68,5.8,5.8,66,0.00,SCT,,0.00,WeatherDisplay:10.37,2013-08-27 14:23:00,
2013-08-27 10:28:00,84.7,71.7,30.03,ENE,68,10.4,10.4,65,0.00,SCT,,0.00,WeatherDisplay:10.37,2013-08-27 14:28:00,
2013-08-27 10:33:00,84.0,71.9,30.02,East,90,2.6,2.6,67,0.00,SCT,,0.00,WeatherDisplay:10.37,2013-08-27 14:33:00,
2013-08-27 10:38:00,84.9,72.3,30.02,NE,45,9.2,9.2,66,0.00,SCT,,0.00,WeatherDisplay:10.37,2013-08-27 14:38:00,
2013-08-27 10:43:00,85.6,72.1,30.02,SE,135,4.6,4.6,64,0.00,SCT,,0.00,WeatherDisplay:10.37,2013-08-27 14:43:00,
2013-08-27 10:48:00,86.5,71.5,30.02,ESE,112,4.6,4.9,61,0.00,SCT,,0.00,WeatherDisplay:10.37,2013-08-27 14:48:00,
2013-08-27 10:53:00,86.5,71.5,30.03,NNE,22,5.2,5.2,61,0.00,SCT,,0.00,WeatherDisplay:10.37,2013-08-27 14:53:00,
2013-08-27 10:58:00,86.5,71.5,30.02,NNE,22,9.2,9.2,61,0.00,SCT,,0.00,WeatherDisplay:10.37,2013-08-27 14:58:00,
2013-08-27 11:03:00,86.0,71.0,30.02,NE,45,2.4,2.4,61,0.00,SCT,,0.00,WeatherDisplay:10.37,2013-08-27 15:03:00,
2013-08-27 11:08:00,85.5,71.0,30.02,ENE,68,4.6,4.7,62,0.00,SCT,,0.00,WeatherDisplay:10.37,2013-08-27 15:08:00,
2013-08-27 11:13:00,85.6,71.6,30.02,ENE,68,4.6,4.9,63,0.00,SCT,,0.00,WeatherDisplay:10.37,2013-08-27 15:13:00,
2013-08-27 11:18:00,86.7,70.7,30.02,NE,45,4.9,4.9,59,0.00,SCT,,0.00,WeatherDisplay:10.37,2013-08-27 15:18:00,
2013-08-27 11:23:00,87.1,70.0,30.02,ESE,112,9.4,9.4,57,0.00,SCT,,0.00,WeatherDisplay:10.37,2013-08-27 15:23:00,
2013-08-27 11:28:00,86.5,69.5,30.02,SE,135,9.2,9.2,57,0.00,SCT,,0.00,WeatherDisplay:10.37,2013-08-27 15:28:00,
2013-08-27 11:33:00,86.0,70.0,30.02,NNE,22,3.6,3.6,59,0.00,SCT,,0.00,WeatherDisplay:10.37,2013-08-27 15:33:00,
2013-08-27 11:38:00,85.3,70.3,30.02,East,90,5.8,5.8,61,0.00,SCT,,0.00,WeatherDisplay:10.37,2013-08-27 15:38:00,
2013-08-27 11:43:00,85.6,70.6,30.02,ESE,112,2.4,2.4,61,0.00,SCT,,0.00,WeatherDisplay:10.37,2013-08-27 15:43:00,
2013-08-27 11:48:00,86.2,70.2,30.02,East,90,6.2,6.2,59,0.00,SCT,,0.00,WeatherDisplay:10.37,2013-08-27 15:48:00,
2013-08-27 11:53:00,86.9,70.8,30.02,ESE,112,3.5,3.5,59,0.00,SCT,,0.00,WeatherDisplay:10.37,2013-08-27 15:53:00,
2013-08-27 11:58:00,87.4,69.8,30.02,ESE,112,3.5,3.5,56,0.00,SCT,,0.00,WeatherDisplay:10.37,2013-08-27 15:58:00,
2013-08-27 12:03:00,87.8,69.6,30.02,ESE,112,5.9,5.9,55,0.00,SCT,,0.00,WeatherDisplay:10.37,2013-08-27 16:03:00,
2013-08-27 12:08:00,88.2,70.5,30.02,NNE,22,5.2,5.2,56,0.00,SCT,,0.00,WeatherDisplay:10.37,2013-08-27 16:08:00,
2013-08-27 12:13:00,88.3,69.6,30.02,ESE,112,8.1,8.1,54,0.00,SCT,,0.00,WeatherDisplay:10.37,2013-08-27 16:13:00,
2013-08-27 12:18:00,88.7,69.9,30.01,East,90,6.9,6.9,54,0.00,SCT,,0.00,WeatherDisplay:10.37,2013-08-27 16:18:00,
2013-08-27 12:23:00,88.7,70.5,30.01,ENE,68,2.3,2.3,55,0.00,SCT,,0.00,WeatherDisplay:10.37,2013-08-27 16:23:00,
2013-08-27 12:28:00,88.9,70.1,30.01,ESE,112,4.6,4.6,54,0.00,SCT,,0.00,WeatherDisplay:10.37,2013-08-27 16:28:00,
2013-08-27 12:33:00,89.2,70.4,30.01,NE,45,6.9,6.9,54,0.00,SCT,,0.00,WeatherDisplay:10.37,2013-08-27 16:33:00,
2013-08-27 12:38:00,88.5,69.2,30.01,East,90,10.4,10.4,53,0.00,SCT,,0.00,WeatherDisplay:10.37,2013-08-27 16:38:00,
2013-08-27 12:43:00,88.3,69.6,30.01,SE,135,8.1,8.1,54,0.00,SCT,,0.00,WeatherDisplay:10.37,2013-08-27 16:43:00,
2013-08-27 12:48:00,88.5,69.8,30.01,NE,45,11.5,11.5,54,0.00,SCT,,0.00,WeatherDisplay:10.37,2013-08-27 16:48:00,
2013-08-27 12:53:00,89.1,69.7,30.00,SE,135,4.7,4.7,53,0.00,SCT,,0.00,WeatherDisplay:10.37,2013-08-27 16:53:00,
2013-08-27 12:58:00,88.5,69.2,30.00,NE,45,8.1,8.1,53,0.00,SCT,,0.00,WeatherDisplay:10.37,2013-08-27 16:58:00,
2013-08-27 13:03:00,88.7,68.8,30.00,SSE,158,4.9,4.9,52,0.00,SCT,,0.00,WeatherDisplay:10.37,2013-08-27 17:03:00,
2013-08-27 13:08:00,88.9,69.0,30.00,East,90,8.1,8.1,52,0.00,SCT,,0.00,WeatherDisplay:10.37,2013-08-27 17:08:00,
2013-08-27 13:13:00,88.7,68.8,30.00,ENE,68,4.9,4.9,52,0.00,SCT,,0.00,WeatherDisplay:10.37,2013-08-27 17:13:00,
2013-08-27 13:18:00,88.5,68.6,30.00,NNE,22,5.8,5.8,52,0.00,SCT,,0.00,WeatherDisplay:10.37,2013-08-27 17:18:00,
2013-08-27 13:23:00,88.7,69.4,30.00,SE,135,4.6,4.6,53,0.00,SCT,,0.00,WeatherDisplay:10.37,2013-08-27 17:23:00,
2013-08-27 13:28:00,89.6,69.6,30.00,ENE,68,3.5,3.5,52,0.00,SCT,,0.00,WeatherDisplay:10.37,2013-08-27 17:28:00,
2013-08-27 13:33:00,89.6,66.7,30.00,East,90,4.9,4.9,47,0.00,SCT,,0.00,WeatherDisplay:10.37,2013-08-27 17:33:00,
2013-08-27 13:38:00,89.6,68.5,30.00,East,90,4.6,4.6,50,0.00,SCT,,0.00,WeatherDisplay:10.37,2013-08-27 17:38:00,
2013-08-27 13:43:00,89.6,67.3,30.00,East,90,11.5,11.5,48,0.00,SCT,,0.00,WeatherDisplay:10.37,2013-08-27 17:43:00,
2013-08-27 13:48:00,89.4,68.9,30.00,ESE,112,6.9,6.9,51,0.00,SCT,,0.00,WeatherDisplay:10.37,2013-08-27 17:48:00,
2013-08-27 13:53:00,89.2,68.7,30.00,East,90,5.8,5.8,51,0.00,SCT,,0.00,WeatherDisplay:10.37,2013-08-27 17:53:00,
2013-08-27 13:58:00,88.9,69.0,30.00,NE,45,9.2,9.2,52,0.00,SCT,,0.00,WeatherDisplay:10.37,2013-08-27 17:58:00,
2013-08-27 14:03:00,88.2,67.8,29.99,NE,45,10.5,10.5,51,0.00,FEW,,0.00,WeatherDisplay:10.37,2013-08-27 18:03:00,
2013-08-27 14:08:00,88.3,68.5,29.99,ENE,68,11.5,11.5,52,0.00,FEW,,0.00,WeatherDisplay:10.37,2013-08-27 18:08:00,
2013-08-27 14:13:00,87.6,68.4,29.99,East,90,8.1,8.1,53,0.00,FEW,,0.00,WeatherDisplay:10.37,2013-08-27 18:13:00,
2013-08-27 14:19:00,87.6,68.9,29.98,ENE,68,4.6,4.6,54,0.00,FEW,,0.00,WeatherDisplay:10.37,2013-08-27 18:19:00,
2013-08-27 14:23:00,89.1,68.6,29.98,ESE,112,5.8,5.8,51,0.00,FEW,,0.00,WeatherDisplay:10.37,2013-08-27 18:23:00,
2013-08-27 14:29:00,89.2,69.9,29.98,NE,45,5.8,5.8,53,0.00,FEW,,0.00,WeatherDisplay:10.37,2013-08-27 18:29:00,
2013-08-27 14:34:00,89.6,69.1,29.98,ENE,68,4.6,4.6,51,0.00,FEW,,0.00,WeatherDisplay:10.37,2013-08-27 18:34:00,
2013-08-27 14:39:00,89.8,68.7,29.98,ENE,68,4.6,4.6,50,0.00,FEW,,0.00,WeatherDisplay:10.37,2013-08-27 18:39:00,
2013-08-27 14:44:00,90.0,69.4,29.98,NNE,22,9.2,9.2,51,0.00,FEW,,0.00,WeatherDisplay:10.37,2013-08-27 18:44:00,
2013-08-27 14:49:00,89.2,68.2,29.98,ESE,112,10.7,10.7,50,0.00,FEW,,0.00,WeatherDisplay:10.37,2013-08-27 18:49:00,
2013-08-27 14:54:00,88.9,68.4,29.98,East,90,3.8,3.8,51,0.00,FEW,,0.00,WeatherDisplay:10.37,2013-08-27 18:54:00,
2013-08-27 14:59:00,89.2,68.7,29.98,East,90,5.8,5.8,51,0.00,FEW,,0.00,WeatherDisplay:10.37,2013-08-27 18:59:00,
2013-08-27 15:04:00,89.4,68.9,29.97,SE,135,4.6,4.6,51,0.00,SCT,,0.00,WeatherDisplay:10.37,2013-08-27 19:04:00,
2013-08-27 15:09:00,89.2,68.7,29.97,SE,135,8.1,8.1,51,0.00,SCT,,0.00,WeatherDisplay:10.37,2013-08-27 19:09:00,
2013-08-27 15:14:00,89.8,69.2,29.97,East,90,4.7,4.7,51,0.00,SCT,,0.00,WeatherDisplay:10.37,2013-08-27 19:14:00,
2013-08-27 15:19:00,90.1,69.0,29.97,East,90,2.3,2.3,50,0.00,SCT,,0.00,WeatherDisplay:10.37,2013-08-27 19:19:00,
2013-08-27 15:24:00,90.0,68.2,29.97,NE,45,8.1,8.1,49,0.00,SCT,,0.00,WeatherDisplay:10.37,2013-08-27 19:24:00,
2013-08-27 15:29:00,89.8,69.2,29.96,ENE,68,4.7,4.7,51,0.00,SCT,,0.00,WeatherDisplay:10.37,2013-08-27 19:29:00,
2013-08-27 15:34:00,88.5,68.1,29.96,East,90,8.1,8.1,51,0.00,SCT,,0.00,WeatherDisplay:10.37,2013-08-27 19:34:00,
2013-08-27 15:39:00,88.9,69.0,29.96,ESE,112,5.8,5.8,52,0.00,SCT,,0.00,WeatherDisplay:10.37,2013-08-27 19:39:00,
2013-08-27 15:44:00,89.6,69.1,29.96,ENE,68,4.6,4.6,51,0.00,SCT,,0.00,WeatherDisplay:10.37,2013-08-27 19:44:00,
2013-08-27 15:49:00,90.0,68.8,29.96,NNE,22,5.9,5.9,50,0.00,SCT,,0.00,WeatherDisplay:10.37,2013-08-27 19:49:00,
2013-08-27 15:54:00,90.1,69.6,29.96,ESE,112,6.2,6.2,51,0.00,SCT,,0.00,WeatherDisplay:10.37,2013-08-27 19:54:00,
2013-08-27 15:59:00,89.4,68.9,29.96,ESE,112,6.2,6.2,51,0.00,SCT,,0.00,WeatherDisplay:10.37,2013-08-27 19:59:00,
2013-08-27 16:04:00,87.8,69.1,29.96,East,90,4.7,4.7,54,0.00,SCT,,0.00,WeatherDisplay:10.37,2013-08-27 20:04:00,
2013-08-27 16:09:00,87.4,69.3,29.96,ENE,68,4.7,4.7,55,0.00,SCT,,0.00,WeatherDisplay:10.37,2013-08-27 20:09:00,
2013-08-27 16:14:00,87.1,67.9,29.96,ENE,68,4.7,4.7,53,0.00,SCT,,0.00,WeatherDisplay:10.37,2013-08-27 20:14:00,
2013-08-27 16:19:00,88.2,68.3,29.96,East,90,2.3,2.3,52,0.00,SCT,,0.00,WeatherDisplay:10.37,2013-08-27 20:19:00,
2013-08-27 16:24:00,89.8,68.7,29.96,SSE,158,4.6,4.6,50,0.00,SCT,,0.00,WeatherDisplay:10.37,2013-08-27 20:24:00,
2013-08-27 16:29:00,90.0,69.4,29.96,NE,45,2.4,2.4,51,0.00,SCT,,0.00,WeatherDisplay:10.37,2013-08-27 20:29:00,
2013-08-27 16:34:00,88.7,68.8,29.96,ENE,68,4.6,4.6,52,0.00,SCT,,0.00,WeatherDisplay:10.37,2013-08-27 20:34:00,
2013-08-27 16:39:00,87.6,68.4,29.96,ESE,112,3.8,3.8,53,0.00,SCT,,0.00,WeatherDisplay:10.37,2013-08-27 20:39:00,
2013-08-27 16:44:00,88.2,68.9,29.96,North,0,3.5,3.5,53,0.00,SCT,,0.00,WeatherDisplay:10.37,2013-08-27 20:44:00,
2013-08-27 16:49:00,88.2,68.3,29.96,NW,315,3.5,3.5,52,0.00,SCT,,0.00,WeatherDisplay:10.37,2013-08-27 20:49:00,
2013-08-27 16:54:00,88.9,69.0,29.96,ESE,112,2.6,2.6,52,0.00,SCT,,0.00,WeatherDisplay:10.37,2013-08-27 20:54:00,
2013-08-27 16:59:00,90.0,70.0,29.96,ESE,112,4.7,4.7,52,0.00,SCT,,0.00,WeatherDisplay:10.37,2013-08-27 20:59:00,
2013-08-27 17:04:00,87.6,68.4,29.96,ESE,112,4.6,4.6,53,0.00,FEW,,0.00,WeatherDisplay:10.37,2013-08-27 21:04:00,
2013-08-27 17:09:00,86.7,68.6,29.96,East,90,4.6,4.6,55,0.00,FEW,,0.00,WeatherDisplay:10.37,2013-08-27 21:09:00,
2013-08-27 17:14:00,86.2,68.6,29.96,ENE,68,6.2,6.2,56,0.00,FEW,,0.00,WeatherDisplay:10.37,2013-08-27 21:14:00,
2013-08-27 17:19:00,86.0,69.5,29.96,NE,45,8.1,8.1,58,0.00,FEW,,0.00,WeatherDisplay:10.37,2013-08-27 21:19:00,
2013-08-27 17:24:00,85.8,68.8,29.96,ESE,112,6.9,6.9,57,0.00,FEW,,0.00,WeatherDisplay:10.37,2013-08-27 21:24:00,
2013-08-27 17:29:00,86.7,69.7,29.96,ESE,112,4.0,4.0,57,0.00,FEW,,0.00,WeatherDisplay:10.37,2013-08-27 21:29:00,
2013-08-27 17:36:00,87.4,69.8,29.96,ENE,68,8.1,8.1,56,0.00,FEW,,0.00,WeatherDisplay:10.37,2013-08-27 21:36:00,
2013-08-27 17:41:00,88.0,69.8,29.96,NNE,22,4.6,4.7,55,0.00,FEW,,0.00,WeatherDisplay:10.37,2013-08-27 21:41:00,
2013-08-27 17:47:00,87.4,69.8,29.97,NE,45,5.8,5.8,56,0.00,FEW,,0.00,WeatherDisplay:10.37,2013-08-27 21:47:00,
2013-08-27 17:52:00,86.2,68.6,29.97,ENE,68,8.1,8.1,56,0.00,FEW,,0.00,WeatherDisplay:10.37,2013-08-27 21:52:00,
2013-08-27 17:57:00,85.6,69.2,29.97,ENE,68,5.8,5.8,58,0.00,FEW,,0.00,WeatherDisplay:10.37,2013-08-27 21:57:00,
2013-08-27 18:02:00,85.6,69.2,29.97,East,90,3.8,3.8,58,0.00,BKN,,0.00,WeatherDisplay:10.37,2013-08-27 22:02:00,
2013-08-27 18:07:00,85.1,68.7,29.97,ESE,112,5.8,5.8,58,0.00,BKN,,0.00,WeatherDisplay:10.37,2013-08-27 22:07:00,
2013-08-27 18:12:00,85.1,68.2,29.97,ENE,68,4.7,4.7,57,0.00,BKN,,0.00,WeatherDisplay:10.37,2013-08-27 22:12:00,
2013-08-27 18:17:00,84.7,67.3,29.97,ENE,68,6.9,6.9,56,0.00,BKN,,0.00,WeatherDisplay:10.37,2013-08-27 22:17:00,
2013-08-27 18:22:00,84.6,67.6,29.96,NNE,22,5.8,5.8,57,0.00,BKN,,0.00,WeatherDisplay:10.37,2013-08-27 22:22:00,
2013-08-27 18:27:00,84.9,67.5,29.97,NE,45,6.9,6.9,56,0.00,BKN,,0.00,WeatherDisplay:10.37,2013-08-27 22:27:00,
2013-08-27 18:32:00,85.8,67.3,29.97,SE,135,10.4,10.4,54,0.00,BKN,,0.00,WeatherDisplay:10.37,2013-08-27 22:32:00,
2013-08-27 18:37:00,86.0,67.4,29.97,East,90,5.8,5.8,54,0.00,BKN,,0.00,WeatherDisplay:10.37,2013-08-27 22:37:00,
2013-08-27 18:42:00,85.6,66.5,29.97,ESE,112,8.1,8.1,53,0.00,BKN,,0.00,WeatherDisplay:10.37,2013-08-27 22:42:00,
2013-08-27 18:47:00,85.6,67.1,29.97,ESE,112,2.9,2.9,54,0.00,BKN,,0.00,WeatherDisplay:10.37,2013-08-27 22:47:00,
2013-08-27 18:52:00,85.6,66.5,29.97,NE,45,3.5,3.5,53,0.00,BKN,,0.00,WeatherDisplay:10.37,2013-08-27 22:52:00,
2013-08-27 18:57:00,85.6,66.5,29.97,NNE,22,3.5,3.5,53,0.00,BKN,,0.00,WeatherDisplay:10.37,2013-08-27 22:57:00,
2013-08-27 19:02:00,85.6,67.1,29.97,East,90,2.3,2.3,54,0.00,SCT,,0.00,WeatherDisplay:10.37,2013-08-27 23:02:00,
2013-08-27 19:07:00,85.3,66.8,29.97,ESE,112,3.5,3.8,54,0.00,SCT,,0.00,WeatherDisplay:10.37,2013-08-27 23:07:00,
2013-08-27 19:12:00,84.9,66.9,29.97,North,0,2.4,2.4,55,0.00,SCT,,0.00,WeatherDisplay:10.37,2013-08-27 23:12:00,
2013-08-27 19:17:00,84.6,66.6,29.97,ESE,112,8.1,8.1,55,0.00,SCT,,0.00,WeatherDisplay:10.37,2013-08-27 23:17:00,
2013-08-27 19:22:00,84.6,66.6,29.97,ENE,68,4.6,4.6,55,0.00,SCT,,0.00,WeatherDisplay:10.37,2013-08-27 23:22:00,
2013-08-27 19:27:00,84.2,66.3,29.97,ENE,68,5.2,5.2,55,0.00,SCT,,0.00,WeatherDisplay:10.37,2013-08-27 23:27:00,
2013-08-27 19:32:00,83.8,65.9,29.97,East,90,4.6,4.6,55,0.00,SCT,,0.00,WeatherDisplay:10.37,2013-08-27 23:32:00,
2013-08-27 19:37:00,83.5,65.6,29.97,ESE,112,3.5,3.5,55,0.00,SCT,,0.00,WeatherDisplay:10.37,2013-08-27 23:37:00,
2013-08-27 19:42:00,82.9,65.6,29.97,East,90,2.4,2.4,56,0.00,SCT,,0.00,WeatherDisplay:10.37,2013-08-27 23:42:00,
2013-08-27 19:47:00,82.6,65.8,29.97,ESE,112,2.6,2.6,57,0.00,SCT,,0.00,WeatherDisplay:10.37,2013-08-27 23:47:00,
2013-08-27 19:52:00,82.0,65.8,29.96,ESE,112,2.3,2.9,58,0.00,SCT,,0.00,WeatherDisplay:10.37,2013-08-27 23:52:00,
2013-08-27 19:57:00,82.0,65.8,29.96,ESE,112,3.5,3.5,58,0.00,SCT,,0.00,WeatherDisplay:10.37,2013-08-27 23:57:00,
2013-08-27 20:02:00,81.9,66.1,29.97,ENE,68,2.3,2.3,59,0.00,SCT,,0.00,WeatherDisplay:10.37,2013-08-28 00:02:00,
2013-08-27 20:07:00,81.3,65.6,29.97,East,90,2.3,2.3,59,0.00,SCT,,0.00,WeatherDisplay:10.37,2013-08-28 00:07:00,
2013-08-27 20:12:00,81.1,65.9,29.97,NE,45,1.6,1.6,60,0.00,SCT,,0.00,WeatherDisplay:10.37,2013-08-28 00:12:00,
2013-08-27 20:17:00,81.0,65.8,29.97,ESE,112,1.1,2.0,60,0.00,SCT,,0.00,WeatherDisplay:10.37,2013-08-28 00:17:00,
2013-08-27 20:22:00,81.0,66.2,29.98,NE,45,2.3,2.9,61,0.00,SCT,,0.00,WeatherDisplay:10.37,2013-08-28 00:22:00,
2013-08-27 20:27:00,80.8,66.1,29.97,NE,45,2.3,2.3,61,0.00,SCT,,0.00,WeatherDisplay:10.37,2013-08-28 00:27:00,
2013-08-27 20:32:00,80.6,65.9,29.98,East,90,1.1,1.1,61,0.00,FEW,,0.00,WeatherDisplay:10.37,2013-08-28 00:32:00,
2013-08-27 20:37:00,80.2,66.0,29.98,ENE,68,2.3,2.3,62,0.00,FEW,,0.00,WeatherDisplay:10.37,2013-08-28 00:37:00,
2013-08-27 20:42:00,80.2,66.0,29.98,ENE,68,1.1,1.1,62,0.00,FEW,,0.00,WeatherDisplay:10.37,2013-08-28 00:42:00,
2013-08-27 20:47:00,80.1,66.3,29.98,ENE,68,1.1,1.1,63,0.00,FEW,,0.00,WeatherDisplay:10.37,2013-08-28 00:47:00,
2013-08-27 20:52:00,79.9,66.2,29.99,SSE,158,2.3,2.3,63,0.00,FEW,,0.00,WeatherDisplay:10.37,2013-08-28 00:52:00,
2013-08-27 20:57:00,79.7,66.0,29.98,NE,45,1.6,1.6,63,0.00,FEW,,0.00,WeatherDisplay:10.37,2013-08-28 00:57:00,
2013-08-27 21:02:00,79.7,66.4,29.99,NNE,22,3.5,3.5,64,0.00,SCT,,0.00,WeatherDisplay:10.37,2013-08-28 01:02:00,
2013-08-27 21:07:00,79.7,66.4,29.99,NE,45,2.4,2.4,64,0.00,SCT,,0.00,WeatherDisplay:10.37,2013-08-28 01:07:00,
2013-08-27 21:12:00,79.7,66.4,29.99,NE,45,3.5,3.5,64,0.00,SCT,,0.00,WeatherDisplay:10.37,2013-08-28 01:12:00,
2013-08-27 21:17:00,79.3,66.5,29.99,NE,45,3.5,3.5,65,0.00,SCT,,0.00,WeatherDisplay:10.37,2013-08-28 01:17:00,
2013-08-27 21:22:00,79.3,66.5,29.99,NE,45,4.6,4.6,65,0.00,SCT,,0.00,WeatherDisplay:10.37,2013-08-28 01:22:00,
2013-08-27 21:27:00,79.3,67.0,29.99,NNE,22,3.5,3.5,66,0.00,SCT,,0.00,WeatherDisplay:10.37,2013-08-28 01:27:00,
2013-08-27 21:32:00,79.2,66.8,30.00,East,90,2.6,2.6,66,0.00,SCT,,0.00,WeatherDisplay:10.37,2013-08-28 01:32:00,
2013-08-27 21:38:00,79.2,66.8,30.00,NE,45,3.8,3.8,66,0.00,SCT,,0.00,WeatherDisplay:10.37,2013-08-28 01:38:00,
2013-08-27 21:43:00,79.2,66.8,30.00,NE,45,4.7,4.7,66,0.00,SCT,,0.00,WeatherDisplay:10.37,2013-08-28 01:43:00,
2013-08-27 21:48:00,78.8,66.5,30.00,NNE,22,3.5,3.5,66,0.00,SCT,,0.00,WeatherDisplay:10.37,2013-08-28 01:48:00,
2013-08-27 21:53:00,78.8,66.5,30.00,NNE,22,1.6,1.6,66,0.00,SCT,,0.00,WeatherDisplay:10.37,2013-08-28 01:53:00,
2013-08-27 21:58:00,78.6,66.3,30.00,NE,45,2.4,2.4,66,0.00,SCT,,0.00,WeatherDisplay:10.37,2013-08-28 01:58:00,
2013-08-27 22:03:00,78.4,66.1,30.00,ENE,68,3.1,3.1,66,0.00,SCT,,0.00,WeatherDisplay:10.37,2013-08-28 02:03:00,
2013-08-27 22:08:00,78.3,66.0,30.00,NE,45,1.6,1.6,66,0.00,SCT,,0.00,WeatherDisplay:10.37,2013-08-28 02:08:00,
2013-08-27 22:13:00,78.1,66.2,30.01,NNE,22,6.0,6.0,67,0.00,SCT,,0.00,WeatherDisplay:10.37,2013-08-28 02:13:00,
2013-08-27 22:18:00,78.1,66.2,30.01,NE,45,3.5,3.5,67,0.00,SCT,,0.00,WeatherDisplay:10.37,2013-08-28 02:18:00,
2013-08-27 22:23:00,77.7,65.9,30.00,ENE,68,2.3,2.3,67,0.00,SCT,,0.00,WeatherDisplay:10.37,2013-08-28 02:23:00,
2013-08-27 22:28:00,77.7,66.3,30.00,ENE,68,2.3,2.3,68,0.00,SCT,,0.00,WeatherDisplay:10.37,2013-08-28 02:28:00,
2013-08-27 22:33:00,77.4,66.0,30.00,NE,45,2.3,2.3,68,0.00,SCT,,0.00,WeatherDisplay:10.37,2013-08-28 02:33:00,
2013-08-27 22:38:00,77.2,65.8,30.00,ENE,68,2.4,2.4,68,0.00,SCT,,0.00,WeatherDisplay:10.37,2013-08-28 02:38:00,
2013-08-27 22:43:00,77.2,66.2,30.00,ENE,68,2.3,2.3,69,0.00,SCT,,0.00,WeatherDisplay:10.37,2013-08-28 02:43:00,
2013-08-27 22:48:00,76.8,66.3,30.00,East,90,1.1,2.2,70,0.00,SCT,,0.00,WeatherDisplay:10.37,2013-08-28 02:48:00,
2013-08-27 22:53:00,76.8,66.3,30.00,NE,45,2.3,2.3,70,0.00,SCT,,0.00,WeatherDisplay:10.37,2013-08-28 02:53:00,
2013-08-27 22:58:00,76.5,65.9,30.00,East,90,1.1,1.1,70,0.00,SCT,,0.00,WeatherDisplay:10.37,2013-08-28 02:58:00,
2013-08-27 23:03:00,76.3,66.2,30.00,ESE,112,2.3,2.3,71,0.00,SCT,,0.00,WeatherDisplay:10.37,2013-08-28 03:03:00,
2013-08-27 23:08:00,76.5,66.4,30.00,ESE,112,2.3,2.3,71,0.00,SCT,,0.00,WeatherDisplay:10.37,2013-08-28 03:08:00,
2013-08-27 23:13:00,76.5,66.4,30.00,SE,135,2.3,2.3,71,0.00,SCT,,0.00,WeatherDisplay:10.37,2013-08-28 03:13:00,
2013-08-27 23:18:00,76.5,66.4,30.00,ESE,112,2.3,2.3,71,0.00,SCT,,0.00,WeatherDisplay:10.37,2013-08-28 03:18:00,
2013-08-27 23:23:00,76.5,66.4,30.00,East,90,2.4,2.4,71,0.00,SCT,,0.00,WeatherDisplay:10.37,2013-08-28 03:23:00,
2013-08-27 23:28:00,76.3,66.2,30.00,East,90,1.1,1.1,71,0.00,SCT,,0.00,WeatherDisplay:10.37,2013-08-28 03:28:00,
2013-08-27 23:33:00,76.3,66.2,30.00,NE,45,1.1,1.1,71,0.00,SCT,,0.00,WeatherDisplay:10.37,2013-08-28 03:33:00,
2013-08-27 23:38:00,76.3,66.2,30.00,NNE,22,0.0,0.0,71,0.00,SCT,,0.00,WeatherDisplay:10.37,2013-08-28 03:38:00,
2013-08-27 23:43:00,76.1,66.4,30.00,ENE,68,1.1,1.1,72,0.00,SCT,,0.00,WeatherDisplay:10.37,2013-08-28 03:43:00,
2013-08-27 23:48:00,76.1,66.4,30.00,ESE,112,1.1,1.1,72,0.00,SCT,,0.00,WeatherDisplay:10.37,2013-08-28 03:48:00,
2013-08-27 23:53:00,76.1,66.4,30.00,East,90,1.1,1.1,72,0.00,SCT,,0.00,WeatherDisplay:10.37,2013-08-28 03:53:00,
2013-08-27 23:59:00,75.9,66.2,30.00,East,90,1.1,1.1,72,0.00,SCT,,0.00,WeatherDisplay:10.37,2013-08-28 03:59:00,